createdAt,value
2017-06-04T00:02:08.283Z,13.40
2017-06-04T00:04:34.977Z,14.20
2017-06-04T00:07:01.647Z,15.00
2017-06-04T00:09:28.311Z,14.47
2017-06-04T00:11:55.001Z,13.27
2017-06-04T00:14:21.672Z,13.30
2017-06-04T00:16:48.333Z,13.43
2017-06-04T00:19:15.013Z,14.67
2017-06-04T00:21:41.679Z,13.33
2017-06-04T00:24:08.340Z,15.20
2017-06-04T00:26:35.018Z,14.83
2017-06-04T00:29:01.688Z,13.83
2017-06-04T00:31:28.353Z,17.23
2017-06-04T00:33:55.048Z,15.13
2017-06-04T00:36:21.704Z,14.33
2017-06-04T00:38:48.373Z,16.90
2017-06-04T00:41:15.065Z,13.40
2017-06-04T00:43:41.730Z,13.00
2017-06-04T00:46:08.397Z,13.50
2017-06-04T00:48:35.083Z,14.13
2017-06-04T00:51:01.745Z,14.93
2017-06-04T00:53:28.431Z,15.00
2017-06-04T00:55:55.115Z,13.23
2017-06-04T00:58:21.804Z,13.10
2017-06-04T01:00:48.466Z,12.00
2017-06-04T01:03:15.156Z,11.97
2017-06-04T01:05:41.816Z,15.33
2017-06-04T01:08:08.480Z,15.73
2017-06-04T01:10:35.185Z,16.20
2017-06-04T01:13:01.848Z,16.33
2017-06-04T01:15:28.528Z,16.70
2017-06-04T01:17:55.207Z,16.37
2017-06-04T01:20:21.896Z,12.77
2017-06-04T01:22:48.567Z,14.87
2017-06-04T01:25:15.247Z,13.60
2017-06-04T01:27:41.929Z,13.03
2017-06-04T01:30:08.591Z,12.73
2017-06-04T01:32:35.283Z,12.40
2017-06-04T01:35:01.951Z,13.07
2017-06-04T01:37:28.608Z,12.30
2017-06-04T01:39:55.314Z,11.67
2017-06-04T01:42:21.981Z,11.93
2017-06-04T01:44:48.644Z,14.93
2017-06-04T01:47:15.325Z,13.80
2017-06-04T01:49:41.989Z,12.53
2017-06-04T01:52:08.657Z,13.03
2017-06-04T01:54:35.333Z,12.60
2017-06-04T01:57:01.990Z,12.50
2017-06-04T01:59:28.655Z,13.70
2017-06-04T02:01:55.335Z,14.07
2017-06-04T02:04:22.004Z,14.17
2017-06-04T02:06:48.668Z,14.47
2017-06-04T02:09:15.459Z,15.83
2017-06-04T02:11:42.122Z,15.53
2017-06-04T02:14:08.789Z,15.30
2017-06-04T02:16:35.476Z,15.03
2017-06-04T02:19:02.141Z,15.03
2017-06-04T02:21:28.807Z,16.13
2017-06-04T02:23:55.586Z,15.70
2017-06-04T02:26:22.266Z,16.47
2017-06-04T02:28:48.931Z,15.20
2017-06-04T02:31:15.623Z,14.40
2017-06-04T02:33:42.283Z,16.40
2017-06-04T02:36:08.946Z,16.97
2017-06-04T02:38:35.632Z,20.50
2017-06-04T02:41:02.309Z,13.70
2017-06-04T02:43:28.969Z,14.83
2017-06-04T02:45:55.752Z,13.53
2017-06-04T02:48:22.420Z,14.83
2017-06-04T02:50:49.084Z,14.23
2017-06-04T02:53:15.781Z,13.40
2017-06-04T02:55:42.457Z,14.60
2017-06-04T02:58:09.117Z,16.43
2017-06-04T03:00:35.821Z,15.73
2017-06-04T03:03:02.484Z,14.40
2017-06-04T03:05:29.165Z,12.47
2017-06-04T03:07:55.841Z,17.87
2017-06-04T03:10:22.499Z,13.67
2017-06-04T03:12:49.161Z,13.17
2017-06-04T03:15:15.855Z,15.13
2017-06-04T03:17:42.524Z,15.23
2017-06-04T03:20:09.185Z,14.47
2017-06-04T03:22:35.875Z,20.43
2017-06-04T03:25:02.549Z,15.53
2017-06-04T03:27:29.236Z,14.63
2017-06-04T03:29:55.918Z,15.23
2017-06-04T03:32:22.599Z,17.90
2017-06-04T03:34:49.268Z,15.23
2017-06-04T03:37:15.955Z,15.87
2017-06-04T03:39:42.620Z,14.87
2017-06-04T03:42:09.281Z,16.70
2017-06-04T03:44:35.977Z,13.50
2017-06-04T03:47:02.638Z,15.37
2017-06-04T03:49:29.299Z,14.60
2017-06-04T03:51:55.980Z,14.73
2017-06-04T03:54:22.655Z,17.07
2017-06-04T03:56:49.324Z,14.47
2017-06-04T03:59:16.008Z,15.07
2017-06-04T04:01:42.667Z,15.33
2017-06-04T04:04:09.331Z,13.20
2017-06-04T04:06:36.024Z,16.03
2017-06-04T04:09:02.687Z,14.40
2017-06-04T04:11:29.343Z,15.30
2017-06-04T04:13:56.015Z,15.67
2017-06-04T04:16:22.697Z,14.43
2017-06-04T04:18:49.357Z,14.33
2017-06-04T04:21:16.047Z,15.13
2017-06-04T04:23:42.711Z,16.43
2017-06-04T04:26:09.378Z,16.80
2017-06-04T04:28:36.062Z,16.47
2017-06-04T04:31:02.733Z,16.53
2017-06-04T04:33:29.397Z,15.17
2017-06-04T04:35:56.089Z,16.93
2017-06-04T04:38:22.752Z,17.50
2017-06-04T04:40:49.413Z,18.03
2017-06-04T04:43:16.103Z,15.57
2017-06-04T04:45:42.777Z,16.10
2017-06-04T04:48:09.447Z,15.73
2017-06-04T04:50:36.321Z,16.73
2017-06-04T04:53:02.980Z,17.00
2017-06-04T04:55:29.644Z,16.83
2017-06-04T04:57:56.537Z,16.80
2017-06-04T05:00:23.201Z,16.63
2017-06-04T05:02:49.863Z,16.57
2017-06-04T05:05:16.559Z,16.47
2017-06-04T05:07:43.228Z,17.93
2017-06-04T05:10:09.891Z,18.70
2017-06-04T05:12:36.572Z,17.87
2017-06-04T05:15:03.236Z,18.43
2017-06-04T05:17:29.901Z,17.80
2017-06-04T05:19:56.891Z,16.57
2017-06-04T05:22:24.508Z,17.97
2017-06-04T05:24:51.173Z,17.97
2017-06-04T05:27:17.922Z,17.93
2017-06-04T05:29:44.598Z,18.23
2017-06-04T05:32:11.271Z,17.23
2017-06-04T05:34:37.972Z,18.27
2017-06-04T05:37:04.640Z,17.27
2017-06-04T05:39:31.304Z,16.03
2017-06-04T05:41:57.994Z,17.40
2017-06-04T05:44:24.657Z,16.27
2017-06-04T05:46:51.324Z,16.93
2017-06-04T05:49:18.035Z,17.33
2017-06-04T05:51:44.700Z,16.90
2017-06-04T05:54:11.348Z,17.77
2017-06-04T05:56:38.053Z,16.87
2017-06-04T05:59:04.710Z,16.20
2017-06-04T06:01:31.374Z,16.83
2017-06-04T06:03:58.068Z,16.97
2017-06-04T06:06:24.736Z,16.77
2017-06-04T06:08:51.418Z,18.60
2017-06-04T06:11:18.095Z,16.63
2017-06-04T06:13:44.756Z,16.00
2017-06-04T06:16:11.429Z,16.37
2017-06-04T06:18:38.125Z,15.90
2017-06-04T06:21:04.806Z,16.50
2017-06-04T06:23:31.474Z,15.97
2017-06-04T06:25:58.256Z,16.27
2017-06-04T06:28:24.938Z,14.97
2017-06-04T06:30:51.600Z,14.30
2017-06-04T06:33:18.328Z,13.73
2017-06-04T06:35:44.984Z,27.20
2017-06-04T06:38:11.650Z,20.30
2017-06-04T06:40:38.605Z,15.07
2017-06-04T06:43:05.275Z,16.13
2017-06-04T06:45:31.940Z,15.60
2017-06-04T06:47:58.635Z,13.90
2017-06-04T06:50:25.305Z,14.77
2017-06-04T06:52:51.970Z,14.70
2017-06-04T06:55:18.663Z,16.30
2017-06-04T06:57:45.329Z,14.50
2017-06-04T07:00:11.984Z,13.80
2017-06-04T07:02:38.686Z,14.60
2017-06-04T07:05:05.344Z,14.20
2017-06-04T07:07:32.008Z,13.23
2017-06-04T07:09:58.730Z,12.67
2017-06-04T07:12:25.392Z,13.73
2017-06-04T07:14:52.074Z,12.93
2017-06-04T07:17:18.759Z,12.80
2017-06-04T07:19:45.450Z,11.90
2017-06-04T07:22:12.108Z,12.63
2017-06-04T07:24:40.035Z,12.03
2017-06-04T07:27:06.694Z,13.53
2017-06-04T07:29:33.361Z,13.00
2017-06-04T07:32:00.057Z,12.70
2017-06-04T07:34:26.720Z,12.87
2017-06-04T07:36:53.386Z,15.20
2017-06-04T07:39:20.081Z,13.10
2017-06-04T07:41:46.750Z,14.17
2017-06-04T07:44:13.471Z,13.33
2017-06-04T07:46:40.156Z,13.57
2017-06-04T07:49:06.947Z,13.43
2017-06-04T07:51:33.608Z,12.30
2017-06-04T07:54:00.287Z,12.87
2017-06-04T07:56:26.967Z,12.83
2017-06-04T07:58:53.638Z,12.27
2017-06-04T08:01:20.364Z,12.20
2017-06-04T08:03:47.029Z,12.90
2017-06-04T08:06:13.724Z,14.10
2017-06-04T08:08:40.408Z,12.77
2017-06-04T08:11:07.099Z,13.00
2017-06-04T08:13:33.764Z,12.97
2017-06-04T08:16:00.654Z,14.07
2017-06-04T08:18:27.315Z,14.73
2017-06-04T08:20:53.981Z,13.17
2017-06-04T08:23:20.669Z,13.20
2017-06-04T08:25:47.335Z,14.57
2017-06-04T08:28:14.000Z,13.27
2017-06-04T08:30:40.943Z,12.63
2017-06-04T08:33:07.613Z,13.27
2017-06-04T08:35:34.299Z,12.73
2017-06-04T08:38:01.000Z,11.83
2017-06-04T08:40:27.687Z,12.27
2017-06-04T08:42:54.363Z,12.70
2017-06-04T08:45:21.077Z,12.00
2017-06-04T08:47:47.739Z,15.43
2017-06-04T08:50:14.400Z,15.30
2017-06-04T08:52:41.096Z,12.70
2017-06-04T08:55:08.479Z,13.40
2017-06-04T08:57:35.189Z,12.63
2017-06-04T09:00:01.876Z,11.70
2017-06-04T09:02:28.540Z,12.63
2017-06-04T09:04:55.270Z,10.53
2017-06-04T09:07:21.936Z,10.83
2017-06-04T09:09:48.682Z,11.70
2017-06-04T09:12:15.350Z,11.03
2017-06-04T09:14:42.036Z,10.57
2017-06-04T09:17:08.723Z,10.23
2017-06-04T09:19:35.436Z,11.90
2017-06-04T09:22:02.098Z,11.57
2017-06-04T09:24:28.823Z,11.90
2017-06-04T09:26:55.488Z,13.33
2017-06-04T09:29:22.169Z,10.83
2017-06-04T09:31:49.087Z,11.67
2017-06-04T09:34:15.795Z,11.50
2017-06-04T09:36:42.453Z,11.07
2017-06-04T09:39:09.238Z,12.50
2017-06-04T09:41:35.908Z,11.90
2017-06-04T09:44:02.692Z,12.07
2017-06-04T09:46:29.422Z,11.47
2017-06-04T09:48:56.132Z,10.47
2017-06-04T09:51:22.858Z,11.17
2017-06-04T09:53:49.550Z,10.80
2017-06-04T09:56:16.257Z,10.43
2017-06-04T09:58:43.082Z,10.80
2017-06-04T10:01:09.773Z,11.20
2017-06-04T10:03:36.457Z,10.37
2017-06-04T10:06:03.249Z,10.43
2017-06-04T10:08:29.960Z,10.03
2017-06-04T10:10:56.767Z,10.13
2017-06-04T10:13:23.463Z,9.97
2017-06-04T10:15:50.202Z,10.13
2017-06-04T10:18:16.907Z,10.37
2017-06-04T10:20:43.597Z,10.80
2017-06-04T10:23:10.292Z,11.00
2017-06-04T10:25:37.020Z,9.70
2017-06-04T10:28:03.704Z,10.03
2017-06-04T10:30:30.393Z,9.67
2017-06-04T10:32:57.127Z,9.33
2017-06-04T10:35:23.799Z,10.03
2017-06-04T10:37:50.621Z,9.80
2017-06-04T10:40:17.358Z,9.50
2017-06-04T10:42:44.289Z,9.67
2017-06-04T10:45:10.984Z,9.60
2017-06-04T10:47:37.699Z,11.07
2017-06-04T10:50:04.539Z,10.50
2017-06-04T10:52:31.263Z,11.10
2017-06-04T10:54:58.023Z,9.07
2017-06-04T10:57:24.751Z,9.57
2017-06-04T10:59:51.475Z,8.97
2017-06-04T11:02:18.232Z,8.90
2017-06-04T11:04:44.988Z,8.87
2017-06-04T11:07:11.692Z,9.10
2017-06-04T11:09:38.417Z,9.23
2017-06-04T11:12:05.173Z,9.37
2017-06-04T11:14:31.942Z,8.87
2017-06-04T11:16:58.679Z,8.40
2017-06-04T11:19:25.427Z,8.37
2017-06-04T11:21:52.133Z,8.67
2017-06-04T11:24:19.231Z,9.03
2017-06-04T11:26:46.108Z,8.83
2017-06-04T11:29:12.810Z,8.73
2017-06-04T11:31:39.558Z,8.80
2017-06-04T11:34:06.290Z,8.83
2017-06-04T11:36:32.982Z,9.00
2017-06-04T11:38:59.679Z,8.70
2017-06-04T11:41:26.371Z,8.13
2017-06-04T11:43:53.054Z,8.50
2017-06-04T11:46:19.740Z,8.00
2017-06-04T11:48:46.423Z,9.20
2017-06-04T11:51:13.120Z,8.80
2017-06-04T11:53:39.791Z,10.87
2017-06-04T11:56:06.496Z,7.97
2017-06-04T11:58:33.257Z,8.20
2017-06-04T12:00:59.935Z,7.27
2017-06-04T12:03:26.622Z,7.13
2017-06-04T12:05:53.300Z,6.77
2017-06-04T12:08:19.996Z,6.33
2017-06-04T12:10:46.690Z,7.23
2017-06-04T12:13:13.469Z,6.83
2017-06-04T12:15:40.230Z,6.27
2017-06-04T12:18:06.903Z,7.03
2017-06-04T12:20:33.593Z,6.47
2017-06-04T12:23:00.289Z,6.47
2017-06-04T12:25:27.052Z,7.17
2017-06-04T12:27:53.720Z,6.70
2017-06-04T12:30:20.405Z,6.80
2017-06-04T12:32:47.115Z,6.60
2017-06-04T12:35:13.825Z,6.00
2017-06-04T12:37:40.507Z,6.93
2017-06-04T12:40:07.211Z,6.60
2017-06-04T12:42:33.959Z,6.60
2017-06-04T12:45:00.629Z,6.40
2017-06-04T12:47:27.321Z,7.60
2017-06-04T12:49:54.121Z,8.30
2017-06-04T12:52:20.809Z,7.53
2017-06-04T12:54:47.595Z,7.30
2017-06-04T12:57:14.296Z,7.20
2017-06-04T12:59:40.975Z,9.20
2017-06-04T13:02:07.784Z,6.40
2017-06-04T13:04:34.532Z,4.63
2017-06-04T13:07:01.264Z,4.80
2017-06-04T13:09:27.940Z,6.73
2017-06-04T13:11:54.642Z,4.20
2017-06-04T13:14:21.330Z,4.13
2017-06-04T13:16:48.264Z,4.70
2017-06-04T13:19:14.949Z,3.70
2017-06-04T13:21:41.788Z,4.20
2017-06-04T13:24:08.517Z,3.80
2017-06-04T13:26:35.297Z,5.30
2017-06-04T13:29:02.199Z,6.83
2017-06-04T13:31:28.897Z,4.63
2017-06-04T13:33:55.593Z,3.40
2017-06-04T13:36:22.282Z,3.90
2017-06-04T13:38:49.007Z,2.60
2017-06-04T13:41:15.794Z,2.97
2017-06-04T13:43:42.491Z,2.57
2017-06-04T13:46:09.451Z,2.60
2017-06-04T13:48:36.148Z,4.47
2017-06-04T13:51:03.798Z,5.50
2017-06-04T13:53:30.492Z,3.37
2017-06-04T13:55:57.207Z,3.70
2017-06-04T13:58:23.924Z,3.50
2017-06-04T14:00:50.657Z,4.60
2017-06-04T14:03:17.350Z,2.90
2017-06-04T14:05:44.049Z,2.07
2017-06-04T14:08:10.824Z,1.10
2017-06-04T14:10:37.509Z,2.67
2017-06-04T14:13:04.179Z,2.53
2017-06-04T14:15:30.896Z,3.53
2017-06-04T14:17:57.589Z,1.77
2017-06-04T14:20:24.285Z,10.43
2017-06-04T14:22:50.969Z,8.27
2017-06-04T14:25:17.665Z,2.23
2017-06-04T14:27:44.352Z,3.50
2017-06-04T14:30:11.036Z,0.63
2017-06-04T14:32:37.716Z,0.60
2017-06-04T14:35:04.392Z,1.80
2017-06-04T14:37:31.069Z,0.60
2017-06-04T14:39:57.788Z,1.57
2017-06-04T14:42:24.992Z,1.57
2017-06-04T14:44:51.671Z,1.80
2017-06-04T14:47:18.692Z,0.53
2017-06-04T14:49:45.358Z,0.73
2017-06-04T14:52:12.140Z,0.40
2017-06-04T14:54:38.850Z,1.40
2017-06-04T14:57:05.587Z,11.93
2017-06-04T14:59:32.688Z,0.83
2017-06-04T15:01:59.372Z,1.17
2017-06-04T15:04:26.068Z,0.90
2017-06-04T15:06:52.752Z,2.03
2017-06-04T15:09:19.763Z,2.67
2017-06-04T15:11:46.440Z,2.07
2017-06-04T15:14:13.313Z,1.90
2017-06-04T15:16:40.024Z,2.30
2017-06-04T15:19:06.764Z,1.17
2017-06-04T15:21:33.440Z,0.83
2017-06-04T15:24:00.178Z,0.87
2017-06-04T15:26:26.875Z,1.17
2017-06-04T15:28:53.554Z,1.07
2017-06-04T15:31:20.235Z,1.23
2017-06-04T15:33:46.992Z,0.87
2017-06-04T15:36:13.696Z,1.90
2017-06-04T15:38:40.372Z,0.70
2017-06-04T15:41:07.158Z,1.10
2017-06-04T15:43:34.032Z,2.33
2017-06-04T15:46:00.712Z,0.40
2017-06-04T15:48:27.400Z,0.90
2017-06-04T15:50:54.089Z,2.13
2017-06-04T15:53:20.797Z,1.03
2017-06-04T15:55:47.493Z,0.40
2017-06-04T15:58:14.181Z,0.97
2017-06-04T16:00:41.090Z,0.60
2017-06-04T16:03:07.780Z,0.40
2017-06-04T16:05:34.459Z,0.40
2017-06-04T16:08:01.184Z,1.37
2017-06-04T16:10:27.911Z,0.50
2017-06-04T16:12:55.104Z,0.60
2017-06-04T16:15:23.071Z,0.80
2017-06-04T16:17:49.757Z,1.83
2017-06-04T16:20:16.729Z,0.70
2017-06-04T16:22:43.542Z,0.90
2017-06-04T16:25:10.223Z,0.90
2017-06-04T16:27:37.480Z,0.50
2017-06-04T16:30:04.277Z,1.10
2017-06-04T16:32:30.956Z,0.60
2017-06-04T16:34:57.812Z,0.70
2017-06-04T16:37:24.492Z,2.77
2017-06-04T16:39:51.167Z,1.60
2017-06-04T16:42:18.105Z,1.77
2017-06-04T16:44:44.861Z,0.87
2017-06-04T16:47:11.565Z,0.60
2017-06-04T16:49:38.380Z,0.63
2017-06-04T16:52:05.058Z,0.60
2017-06-04T16:54:31.776Z,0.60
2017-06-04T16:56:58.515Z,0.70
2017-06-04T16:59:25.287Z,6.17
2017-06-04T17:01:51.984Z,0.93
2017-06-04T17:04:18.763Z,0.83
2017-06-04T17:06:45.477Z,0.60
2017-06-04T17:09:12.220Z,1.70
2017-06-04T17:11:38.972Z,0.90
2017-06-04T17:14:05.643Z,0.60
2017-06-04T17:16:32.335Z,0.60
2017-06-04T17:18:59.005Z,1.73
2017-06-04T17:21:25.808Z,1.37
2017-06-04T17:23:52.490Z,0.70
2017-06-04T17:26:19.472Z,0.77
2017-06-04T17:28:46.157Z,0.60
2017-06-04T17:31:12.840Z,3.77
2017-06-04T17:33:39.516Z,1.90
2017-06-04T17:36:06.167Z,0.93
2017-06-04T17:38:33.689Z,0.90
2017-06-04T17:41:00.382Z,1.57
2017-06-04T17:43:27.041Z,2.30
2017-06-04T17:45:53.702Z,1.37
2017-06-04T17:48:20.378Z,0.97
2017-06-04T17:50:47.035Z,0.50
2017-06-04T17:53:13.767Z,0.60
2017-06-04T17:55:40.431Z,1.77
2017-06-04T17:58:07.091Z,1.10
2017-06-04T18:00:33.773Z,2.60
2017-06-04T18:03:00.549Z,3.90
2017-06-04T18:05:27.216Z,0.70
2017-06-04T18:07:53.912Z,2.30
2017-06-04T18:10:20.568Z,0.90
2017-06-04T18:12:47.247Z,0.60
2017-06-04T18:15:13.925Z,0.90
2017-06-04T18:17:40.572Z,0.50
2017-06-04T18:20:07.249Z,1.03
2017-06-04T18:22:33.928Z,0.50
2017-06-04T18:25:00.578Z,0.90
2017-06-04T18:27:27.237Z,0.50
2017-06-04T18:29:53.919Z,1.73
2017-06-04T18:32:20.578Z,4.03
2017-06-04T18:34:47.238Z,1.07
2017-06-04T18:37:13.961Z,1.00
2017-06-04T18:39:40.617Z,2.73
2017-06-04T18:42:07.293Z,1.97
2017-06-04T18:44:33.968Z,3.60
2017-06-04T18:47:00.625Z,2.40
2017-06-04T18:49:27.275Z,4.10
2017-06-04T18:51:53.991Z,3.47
2017-06-04T18:54:20.646Z,3.53
2017-06-04T18:56:47.508Z,1.40
2017-06-04T18:59:14.273Z,1.50
2017-06-04T19:01:41.057Z,0.80
2017-06-04T19:04:07.741Z,0.97
2017-06-04T19:06:34.423Z,1.23
2017-06-04T19:09:01.097Z,1.77
2017-06-04T19:11:27.822Z,2.83
2017-06-04T19:13:54.496Z,0.67
2017-06-04T19:16:21.192Z,1.17
2017-06-04T19:18:47.871Z,0.90
2017-06-04T19:21:14.564Z,3.13
2017-06-04T19:23:41.257Z,0.97
2017-06-04T19:26:07.931Z,1.40
2017-06-04T19:28:34.613Z,1.63
2017-06-04T19:31:01.338Z,1.47
2017-06-04T19:33:28.114Z,1.20
2017-06-04T19:35:54.839Z,2.30
2017-06-04T19:38:21.520Z,1.33
2017-06-04T19:40:48.201Z,1.23
2017-06-04T19:43:14.901Z,1.17
2017-06-04T19:45:41.836Z,1.70
2017-06-04T19:48:08.512Z,0.83
2017-06-04T19:50:35.306Z,1.03
2017-06-04T19:53:02.006Z,2.00
2017-06-04T19:55:28.687Z,1.73
2017-06-04T19:57:55.355Z,1.30
2017-06-04T20:00:22.228Z,3.70
2017-06-04T20:02:48.903Z,3.20
2017-06-04T20:05:15.895Z,2.87
2017-06-04T20:07:42.601Z,2.00
2017-06-04T20:10:09.281Z,0.97
2017-06-04T20:12:36.252Z,2.70
2017-06-04T20:15:02.954Z,2.03
2017-06-04T20:17:29.639Z,1.00
2017-06-04T20:19:57.084Z,0.60
2017-06-04T20:22:23.901Z,1.87
2017-06-04T20:24:50.589Z,3.00
2017-06-04T20:27:17.365Z,1.63
2017-06-04T20:29:44.312Z,7.50
2017-06-04T20:32:10.981Z,3.13
2017-06-04T20:34:37.658Z,2.23
2017-06-04T20:37:04.339Z,2.67
2017-06-04T20:39:30.996Z,6.30
2017-06-04T20:41:57.687Z,6.37
2017-06-04T20:44:24.385Z,6.10
2017-06-04T20:46:51.071Z,4.07
2017-06-04T20:49:17.742Z,3.17
2017-06-04T20:51:44.437Z,2.60
2017-06-04T20:54:11.234Z,2.20
2017-06-04T20:56:37.938Z,5.10
2017-06-04T20:59:04.626Z,1.70
2017-06-04T21:01:31.290Z,2.17
2017-06-04T21:03:58.044Z,1.27
2017-06-04T21:06:24.701Z,3.73
2017-06-04T21:08:51.400Z,3.73
2017-06-04T21:11:18.053Z,1.33
2017-06-04T21:13:44.705Z,2.37
2017-06-04T21:16:11.388Z,3.40
2017-06-04T21:18:38.052Z,3.90
2017-06-04T21:21:04.718Z,2.57
2017-06-04T21:23:31.401Z,1.40
2017-06-04T21:25:58.075Z,2.20
2017-06-04T21:28:24.731Z,1.43
2017-06-04T21:30:51.410Z,2.80
2017-06-04T21:33:18.086Z,3.00
2017-06-04T21:35:44.745Z,2.10
2017-06-04T21:38:11.426Z,2.30
2017-06-04T21:40:38.103Z,6.10
2017-06-04T21:43:04.751Z,2.40
2017-06-04T21:45:31.438Z,2.50
2017-06-04T21:47:58.121Z,3.80
2017-06-04T21:50:24.779Z,1.70
2017-06-04T21:52:51.463Z,1.90
2017-06-04T21:55:18.140Z,1.70
2017-06-04T21:57:44.796Z,5.47
2017-06-04T22:00:11.464Z,2.13
2017-06-04T22:02:38.129Z,3.10
2017-06-04T22:05:04.784Z,2.43
2017-06-04T22:07:31.456Z,3.00
2017-06-04T22:09:58.104Z,2.20
2017-06-04T22:12:24.756Z,2.90
2017-06-04T22:14:51.438Z,2.30
2017-06-04T22:17:18.101Z,3.80
2017-06-04T22:19:44.751Z,3.37
2017-06-04T22:22:11.416Z,1.63
2017-06-04T22:24:38.073Z,1.50
2017-06-04T22:27:04.728Z,2.20
2017-06-04T22:29:31.407Z,2.60
2017-06-04T22:31:58.068Z,1.80
2017-06-04T22:34:24.722Z,4.03
2017-06-04T22:36:51.416Z,2.70
2017-06-04T22:39:18.072Z,1.87
2017-06-04T22:41:44.730Z,7.03
2017-06-04T22:44:11.434Z,3.37
2017-06-04T22:46:38.088Z,1.33
2017-06-04T22:49:04.740Z,2.40
2017-06-04T22:51:31.449Z,1.57
2017-06-04T22:53:58.099Z,2.00
2017-06-04T22:56:24.751Z,3.90
2017-06-04T22:58:51.424Z,2.47
2017-06-04T23:01:18.073Z,4.97
2017-06-04T23:03:44.724Z,2.67
2017-06-04T23:06:11.411Z,1.43
2017-06-04T23:08:38.087Z,5.20
2017-06-04T23:11:04.742Z,2.90
2017-06-04T23:13:31.438Z,2.50
2017-06-04T23:15:58.106Z,3.97
2017-06-04T23:18:24.766Z,4.60
2017-06-04T23:20:51.450Z,1.90
2017-06-04T23:23:18.116Z,4.73
2017-06-04T23:25:44.780Z,5.57
2017-06-04T23:28:11.470Z,3.23
2017-06-04T23:30:38.134Z,1.57
2017-06-04T23:33:04.789Z,5.77
2017-06-04T23:35:31.471Z,2.40
2017-06-04T23:37:58.149Z,2.70
2017-06-04T23:40:24.808Z,2.33
2017-06-04T23:42:51.757Z,4.57
2017-06-04T23:45:18.413Z,1.67
2017-06-04T23:47:45.071Z,4.97
2017-06-04T23:50:11.770Z,5.20
2017-06-04T23:52:38.425Z,3.67
2017-06-04T23:55:05.087Z,3.10
2017-06-04T23:57:31.785Z,3.60
2017-06-04T23:59:58.448Z,4.17
